Terminal Aerodrome Forecast
Issued by NWS

Current Version | Previous Version | Text Only | Print | Product List | Glossary Off
Versions: 1 2 3 4 5 6 7 8 9 10 11 12 13 14 15 16 17 18 19 20 21 22 23 24 25 26 27 28 29 30 31 32 33 34 35 36

000
FTUS41 KRNK 160528
TAFLWB
TAF
KLWB 160528Z 1606/1706 26003KT P6SM SCT040 BKN100
     FM160900 29005KT 4SM BR SCT004 BKN050
      TEMPO 1610/1612 1SM BR
     FM161400 29003KT P6SM OVC035
     FM162100 31006KT P6SM BKN045
     FM170000 00000KT P6SM SCT035 SCT100=

USA.gov is the U.S. government's official web portal to all federal, state and local government web resources and services.